North Cedar, Iowa
Current Conditions -  °F | °C
As of 2:54 PM on Friday 31 Oct 2014 (Local Time) from KALO Reporting Station
Clear Clear  
Wind Chill: 33°   Ceiling: Unl
Heat Index: 41°   Visibility: 10mi
Dew Point: 18°   Wind: 16mph
Humidity: 40%   Direction: 360°N
Pressure: 30.43"   Gusts: 29mph
Location:  42.5035°N, 92.4936°W
Report Text: KALO 311954Z 36014G25KT 10SM CLR 05/M08 A3043 RMK AO2 PK WND 33027/1906 RAB06E26 SLP313 P0000 T00501078
Loading
Personal Weather Stations






























Interactive Weather Map
Tropical Storm Tracking
New forecast layout! Learn more

10-Day Weather Forecast

Advertisements
Track Severe Weather on mobile